sensor_id;sensor_type;location;lat;lon;timestamp;P1;durP1;ratioP1;P2;durP2;ratioP2
77004;SDS011;67261;53.132;18.006;2023-10-31T00:00:53;30.00;;;19.00;;
77004;SDS011;67261;53.132;18.006;2023-10-31T00:03:29;26.40;;;16.50;;
77004;SDS011;67261;53.132;18.006;2023-10-31T00:05:56;26.90;;;16.80;;
77004;SDS011;67261;53.132;18.006;2023-10-31T00:08:22;24.70;;;14.90;;
77004;SDS011;67261;53.132;18.006;2023-10-31T00:10:50;25.00;;;15.20;;
77004;SDS011;67261;53.132;18.006;2023-10-31T00:13:17;30.50;;;16.50;;
77004;SDS011;67261;53.132;18.006;2023-10-31T00:15:44;27.70;;;17.80;;
77004;SDS011;67261;53.132;18.006;2023-10-31T00:18:11;25.40;;;14.40;;
77004;SDS011;67261;53.132;18.006;2023-10-31T00:20:38;26.60;;;16.00;;
77004;SDS011;67261;53.132;18.006;2023-10-31T00:23:06;26.40;;;15.50;;
77004;SDS011;67261;53.132;18.006;2023-10-31T00:25:33;25.50;;;15.00;;
77004;SDS011;67261;53.132;18.006;2023-10-31T00:28:00;23.70;;;15.00;;
77004;SDS011;67261;53.132;18.006;2023-10-31T00:30:27;26.50;;;16.40;;
77004;SDS011;67261;53.132;18.006;2023-10-31T00:32:54;26.90;;;16.50;;
77004;SDS011;67261;53.132;18.006;2023-10-31T00:35:21;28.30;;;17.30;;
77004;SDS011;67261;53.132;18.006;2023-10-31T00:37:48;28.50;;;16.50;;
77004;SDS011;67261;53.132;18.006;2023-10-31T00:40:15;27.60;;;15.70;;
77004;SDS011;67261;53.132;18.006;2023-10-31T00:45:10;28.10;;;15.80;;
77004;SDS011;67261;53.132;18.006;2023-10-31T00:47:37;19.90;;;12.50;;
77004;SDS011;67261;53.132;18.006;2023-10-31T00:50:04;24.70;;;15.10;;
77004;SDS011;67261;53.132;18.006;2023-10-31T00:54:58;22.60;;;13.10;;
77004;SDS011;67261;53.132;18.006;2023-10-31T00:57:25;26.00;;;13.80;;
77004;SDS011;67261;53.132;18.006;2023-10-31T00:59:52;24.50;;;16.10;;
77004;SDS011;67261;53.132;18.006;2023-10-31T01:02:19;22.30;;;16.00;;
77004;SDS011;67261;53.132;18.006;2023-10-31T01:04:46;22.10;;;14.10;;
77004;SDS011;67261;53.132;18.006;2023-10-31T01:07:13;24.10;;;15.20;;
77004;SDS011;67261;53.132;18.006;2023-10-31T01:09:43;29.40;;;15.60;;
77004;SDS011;67261;53.132;18.006;2023-10-31T01:12:11;27.10;;;15.70;;
77004;SDS011;67261;53.132;18.006;2023-10-31T01:14:40;24.40;;;15.50;;
77004;SDS011;67261;53.132;18.006;2023-10-31T01:17:07;22.60;;;14.30;;
77004;SDS011;67261;53.132;18.006;2023-10-31T01:19:34;23.60;;;16.20;;
77004;SDS011;67261;53.132;18.006;2023-10-31T01:22:02;22.30;;;14.50;;
77004;SDS011;67261;53.132;18.006;2023-10-31T01:24:29;23.70;;;14.30;;
77004;SDS011;67261;53.132;18.006;2023-10-31T01:26:57;25.00;;;14.10;;
77004;SDS011;67261;53.132;18.006;2023-10-31T01:31:51;23.60;;;13.90;;
77004;SDS011;67261;53.132;18.006;2023-10-31T01:34:21;23.50;;;13.90;;
77004;SDS011;67261;53.132;18.006;2023-10-31T01:36:49;24.50;;;14.50;;
77004;SDS011;67261;53.132;18.006;2023-10-31T01:39:16;21.50;;;13.70;;
77004;SDS011;67261;53.132;18.006;2023-10-31T01:41:43;22.30;;;14.40;;
77004;SDS011;67261;53.132;18.006;2023-10-31T01:44:10;26.60;;;14.70;;
77004;SDS011;67261;53.132;18.006;2023-10-31T01:46:38;22.50;;;14.20;;
77004;SDS011;67261;53.132;18.006;2023-10-31T01:49:05;24.20;;;13.50;;
77004;SDS011;67261;53.132;18.006;2023-10-31T01:51:32;22.00;;;13.90;;
77004;SDS011;67261;53.132;18.006;2023-10-31T01:54:01;22.10;;;14.40;;
77004;SDS011;67261;53.132;18.006;2023-10-31T01:58:59;22.90;;;14.10;;
77004;SDS011;67261;53.132;18.006;2023-10-31T02:01:29;22.70;;;14.60;;
77004;SDS011;67261;53.132;18.006;2023-10-31T02:03:57;21.90;;;13.60;;
77004;SDS011;67261;53.132;18.006;2023-10-31T02:06:25;24.40;;;13.50;;
77004;SDS011;67261;53.132;18.006;2023-10-31T02:08:54;21.50;;;13.20;;
77004;SDS011;67261;53.132;18.006;2023-10-31T02:11:23;22.90;;;14.20;;
77004;SDS011;67261;53.132;18.006;2023-10-31T02:13:52;20.40;;;12.20;;
77004;SDS011;67261;53.132;18.006;2023-10-31T02:16:20;18.70;;;13.40;;
77004;SDS011;67261;53.132;18.006;2023-10-31T02:18:47;20.20;;;13.30;;
77004;SDS011;67261;53.132;18.006;2023-10-31T02:21:15;24.80;;;13.90;;
77004;SDS011;67261;53.132;18.006;2023-10-31T02:23:56;18.10;;;13.10;;
77004;SDS011;67261;53.132;18.006;2023-10-31T02:26:30;22.50;;;14.80;;
77004;SDS011;67261;53.132;18.006;2023-10-31T02:28:58;24.10;;;14.80;;
77004;SDS011;67261;53.132;18.006;2023-10-31T02:31:26;20.90;;;13.50;;
77004;SDS011;67261;53.132;18.006;2023-10-31T02:33:55;21.50;;;13.90;;
77004;SDS011;67261;53.132;18.006;2023-10-31T02:36:25;21.20;;;13.90;;
77004;SDS011;67261;53.132;18.006;2023-10-31T02:38:52;20.20;;;12.30;;
77004;SDS011;67261;53.132;18.006;2023-10-31T02:41:20;19.70;;;13.50;;
77004;SDS011;67261;53.132;18.006;2023-10-31T02:43:48;19.70;;;12.20;;
77004;SDS011;67261;53.132;18.006;2023-10-31T02:46:15;19.50;;;13.30;;
77004;SDS011;67261;53.132;18.006;2023-10-31T02:48:42;19.90;;;11.70;;
77004;SDS011;67261;53.132;18.006;2023-10-31T02:51:10;21.90;;;12.50;;
77004;SDS011;67261;53.132;18.006;2023-10-31T02:53:37;19.20;;;12.10;;
77004;SDS011;67261;53.132;18.006;2023-10-31T02:56:05;19.90;;;12.50;;
77004;SDS011;67261;53.132;18.006;2023-10-31T02:58:32;17.70;;;12.20;;
77004;SDS011;67261;53.132;18.006;2023-10-31T03:00:59;19.10;;;12.50;;
77004;SDS011;67261;53.132;18.006;2023-10-31T03:03:28;20.30;;;12.70;;
77004;SDS011;67261;53.132;18.006;2023-10-31T03:05:55;18.90;;;12.60;;
77004;SDS011;67261;53.132;18.006;2023-10-31T03:08:25;19.50;;;11.80;;
77004;SDS011;67261;53.132;18.006;2023-10-31T03:10:52;18.90;;;11.00;;
77004;SDS011;67261;53.132;18.006;2023-10-31T03:13:20;17.80;;;11.70;;
77004;SDS011;67261;53.132;18.006;2023-10-31T03:15:48;18.60;;;11.10;;
77004;SDS011;67261;53.132;18.006;2023-10-31T03:18:15;14.90;;;9.70;;
77004;SDS011;67261;53.132;18.006;2023-10-31T03:20:45;17.70;;;11.30;;
77004;SDS011;67261;53.132;18.006;2023-10-31T03:23:13;14.80;;;9.00;;
77004;SDS011;67261;53.132;18.006;2023-10-31T03:28:17;15.30;;;9.00;;
77004;SDS011;67261;53.132;18.006;2023-10-31T03:30:47;14.40;;;9.30;;
77004;SDS011;67261;53.132;18.006;2023-10-31T03:33:14;15.50;;;9.20;;
77004;SDS011;67261;53.132;18.006;2023-10-31T03:35:43;14.30;;;9.20;;
77004;SDS011;67261;53.132;18.006;2023-10-31T03:38:11;11.90;;;7.20;;
77004;SDS011;67261;53.132;18.006;2023-10-31T03:40:40;17.60;;;10.00;;
77004;SDS011;67261;53.132;18.006;2023-10-31T03:43:07;15.50;;;9.40;;
77004;SDS011;67261;53.132;18.006;2023-10-31T03:45:35;15.70;;;9.50;;
77004;SDS011;67261;53.132;18.006;2023-10-31T03:48:05;13.60;;;8.30;;
77004;SDS011;67261;53.132;18.006;2023-10-31T03:50:32;14.00;;;8.80;;
77004;SDS011;67261;53.132;18.006;2023-10-31T03:53:01;15.30;;;9.60;;
77004;SDS011;67261;53.132;18.006;2023-10-31T03:55:30;14.60;;;8.80;;
77004;SDS011;67261;53.132;18.006;2023-10-31T03:57:58;15.00;;;8.30;;
77004;SDS011;67261;53.132;18.006;2023-10-31T04:00:28;14.30;;;7.90;;
77004;SDS011;67261;53.132;18.006;2023-10-31T04:02:59;15.00;;;7.90;;
77004;SDS011;67261;53.132;18.006;2023-10-31T04:07:53;13.40;;;7.40;;
77004;SDS011;67261;53.132;18.006;2023-10-31T04:10:21;12.50;;;7.80;;
77004;SDS011;67261;53.132;18.006;2023-10-31T04:15:18;12.90;;;7.70;;
77004;SDS011;67261;53.132;18.006;2023-10-31T04:17:47;12.50;;;8.50;;
77004;SDS011;67261;53.132;18.006;2023-10-31T04:20:14;12.40;;;8.10;;
77004;SDS011;67261;53.132;18.006;2023-10-31T04:22:42;14.30;;;7.90;;
77004;SDS011;67261;53.132;18.006;2023-10-31T04:25:09;13.30;;;8.60;;
77004;SDS011;67261;53.132;18.006;2023-10-31T04:27:36;13.60;;;8.20;;
77004;SDS011;67261;53.132;18.006;2023-10-31T04:30:04;13.40;;;8.40;;
77004;SDS011;67261;53.132;18.006;2023-10-31T04:32:32;12.50;;;7.70;;
77004;SDS011;67261;53.132;18.006;2023-10-31T04:34:59;15.40;;;8.30;;
77004;SDS011;67261;53.132;18.006;2023-10-31T04:37:26;15.10;;;8.50;;
77004;SDS011;67261;53.132;18.006;2023-10-31T04:39:58;12.90;;;8.00;;
77004;SDS011;67261;53.132;18.006;2023-10-31T04:42:25;12.90;;;8.30;;
77004;SDS011;67261;53.132;18.006;2023-10-31T04:44:52;14.20;;;8.60;;
77004;SDS011;67261;53.132;18.006;2023-10-31T04:47:20;10.50;;;7.10;;
77004;SDS011;67261;53.132;18.006;2023-10-31T04:49:47;13.80;;;8.40;;
77004;SDS011;67261;53.132;18.006;2023-10-31T04:52:14;11.50;;;7.40;;
77004;SDS011;67261;53.132;18.006;2023-10-31T04:54:43;14.00;;;8.10;;
77004;SDS011;67261;53.132;18.006;2023-10-31T04:57:11;14.10;;;7.90;;
77004;SDS011;67261;53.132;18.006;2023-10-31T04:59:38;14.90;;;7.50;;
77004;SDS011;67261;53.132;18.006;2023-10-31T05:02:05;12.60;;;8.60;;
77004;SDS011;67261;53.132;18.006;2023-10-31T05:04:32;15.60;;;8.20;;
77004;SDS011;67261;53.132;18.006;2023-10-31T05:09:27;11.80;;;8.20;;
77004;SDS011;67261;53.132;18.006;2023-10-31T05:11:54;15.90;;;8.90;;
77004;SDS011;67261;53.132;18.006;2023-10-31T05:14:24;15.90;;;8.20;;
77004;SDS011;67261;53.132;18.006;2023-10-31T05:16:52;13.50;;;7.90;;
77004;SDS011;67261;53.132;18.006;2023-10-31T05:19:19;16.00;;;9.20;;
77004;SDS011;67261;53.132;18.006;2023-10-31T05:21:46;17.10;;;8.40;;
77004;SDS011;67261;53.132;18.006;2023-10-31T05:24:13;21.90;;;10.20;;
77004;SDS011;67261;53.132;18.006;2023-10-31T05:26:41;15.20;;;9.30;;
77004;SDS011;67261;53.132;18.006;2023-10-31T05:29:11;17.70;;;8.90;;
77004;SDS011;67261;53.132;18.006;2023-10-31T05:31:39;14.40;;;8.70;;
77004;SDS011;67261;53.132;18.006;2023-10-31T05:34:08;17.00;;;8.70;;
77004;SDS011;67261;53.132;18.006;2023-10-31T05:39:03;11.00;;;6.10;;
77004;SDS011;67261;53.132;18.006;2023-10-31T05:41:33;11.70;;;7.30;;
77004;SDS011;67261;53.132;18.006;2023-10-31T05:44:04;12.30;;;7.10;;
77004;SDS011;67261;53.132;18.006;2023-10-31T05:46:39;10.90;;;6.40;;
77004;SDS011;67261;53.132;18.006;2023-10-31T05:49:09;11.40;;;6.00;;
77004;SDS011;67261;53.132;18.006;2023-10-31T05:51:43;11.70;;;6.00;;
77004;SDS011;67261;53.132;18.006;2023-10-31T05:54:21;14.20;;;9.50;;
77004;SDS011;67261;53.132;18.006;2023-10-31T05:56:54;13.30;;;8.40;;
77004;SDS011;67261;53.132;18.006;2023-10-31T05:59:22;31.40;;;21.80;;
77004;SDS011;67261;53.132;18.006;2023-10-31T06:01:49;48.90;;;37.00;;
77004;SDS011;67261;53.132;18.006;2023-10-31T06:04:19;30.70;;;26.30;;
77004;SDS011;67261;53.132;18.006;2023-10-31T06:06:48;15.50;;;11.30;;
77004;SDS011;67261;53.132;18.006;2023-10-31T06:09:16;11.00;;;6.60;;
77004;SDS011;67261;53.132;18.006;2023-10-31T06:14:13;10.80;;;6.10;;
77004;SDS011;67261;53.132;18.006;2023-10-31T06:16:41;8.60;;;5.10;;
77004;SDS011;67261;53.132;18.006;2023-10-31T06:19:09;10.50;;;5.70;;
77004;SDS011;67261;53.132;18.006;2023-10-31T06:21:37;9.90;;;6.00;;
77004;SDS011;67261;53.132;18.006;2023-10-31T06:24:07;10.40;;;5.50;;
77004;SDS011;67261;53.132;18.006;2023-10-31T06:26:35;11.20;;;6.20;;
77004;SDS011;67261;53.132;18.006;2023-10-31T06:29:05;10.60;;;6.10;;
77004;SDS011;67261;53.132;18.006;2023-10-31T06:34:00;11.20;;;6.00;;
77004;SDS011;67261;53.132;18.006;2023-10-31T06:36:35;8.40;;;5.10;;
77004;SDS011;67261;53.132;18.006;2023-10-31T06:39:02;9.40;;;5.80;;
77004;SDS011;67261;53.132;18.006;2023-10-31T06:41:30;10.10;;;5.70;;
77004;SDS011;67261;53.132;18.006;2023-10-31T06:43:57;10.20;;;5.70;;
77004;SDS011;67261;53.132;18.006;2023-10-31T06:48:53;10.50;;;5.30;;
77004;SDS011;67261;53.132;18.006;2023-10-31T06:53:48;13.90;;;6.30;;
77004;SDS011;67261;53.132;18.006;2023-10-31T06:56:17;15.70;;;6.30;;
77004;SDS011;67261;53.132;18.006;2023-10-31T06:58:45;12.40;;;6.10;;
77004;SDS011;67261;53.132;18.006;2023-10-31T07:01:15;12.30;;;6.20;;
77004;SDS011;67261;53.132;18.006;2023-10-31T07:03:47;13.90;;;5.90;;
77004;SDS011;67261;53.132;18.006;2023-10-31T07:06:14;12.40;;;6.00;;
77004;SDS011;67261;53.132;18.006;2023-10-31T07:08:44;14.70;;;6.90;;
77004;SDS011;67261;53.132;18.006;2023-10-31T07:11:11;11.70;;;6.80;;
77004;SDS011;67261;53.132;18.006;2023-10-31T07:13:39;12.60;;;7.30;;
77004;SDS011;67261;53.132;18.006;2023-10-31T07:18:33;13.70;;;7.50;;
77004;SDS011;67261;53.132;18.006;2023-10-31T07:21:00;12.00;;;7.20;;
77004;SDS011;67261;53.132;18.006;2023-10-31T07:23:29;13.90;;;8.30;;
77004;SDS011;67261;53.132;18.006;2023-10-31T07:26:04;14.80;;;6.80;;
77004;SDS011;67261;53.132;18.006;2023-10-31T07:28:32;12.70;;;7.80;;
77004;SDS011;67261;53.132;18.006;2023-10-31T07:31:02;12.80;;;6.80;;
77004;SDS011;67261;53.132;18.006;2023-10-31T07:33:31;14.30;;;8.50;;
77004;SDS011;67261;53.132;18.006;2023-10-31T07:35:58;15.30;;;7.40;;
77004;SDS011;67261;53.132;18.006;2023-10-31T07:40:56;11.20;;;6.60;;
77004;SDS011;67261;53.132;18.006;2023-10-31T07:43:23;11.10;;;7.10;;
77004;SDS011;67261;53.132;18.006;2023-10-31T07:45:58;12.80;;;6.30;;
77004;SDS011;67261;53.132;18.006;2023-10-31T07:48:27;11.10;;;6.30;;
77004;SDS011;67261;53.132;18.006;2023-10-31T07:50:54;13.10;;;6.60;;
77004;SDS011;67261;53.132;18.006;2023-10-31T07:53:21;11.60;;;6.70;;
77004;SDS011;67261;53.132;18.006;2023-10-31T07:55:48;12.40;;;6.00;;
77004;SDS011;67261;53.132;18.006;2023-10-31T07:58:18;13.10;;;6.80;;
77004;SDS011;67261;53.132;18.006;2023-10-31T08:00:45;11.20;;;6.50;;
77004;SDS011;67261;53.132;18.006;2023-10-31T08:03:13;11.70;;;6.30;;
77004;SDS011;67261;53.132;18.006;2023-10-31T08:05:41;12.30;;;7.30;;
77004;SDS011;67261;53.132;18.006;2023-10-31T08:08:11;14.00;;;7.20;;
77004;SDS011;67261;53.132;18.006;2023-10-31T08:10:39;11.10;;;7.00;;
77004;SDS011;67261;53.132;18.006;2023-10-31T08:13:06;11.20;;;6.80;;
77004;SDS011;67261;53.132;18.006;2023-10-31T08:15:36;10.10;;;7.00;;
77004;SDS011;67261;53.132;18.006;2023-10-31T08:18:03;11.40;;;6.60;;
77004;SDS011;67261;53.132;18.006;2023-10-31T08:20:31;11.90;;;7.10;;
77004;SDS011;67261;53.132;18.006;2023-10-31T08:23:03;12.00;;;6.70;;
77004;SDS011;67261;53.132;18.006;2023-10-31T08:25:33;14.40;;;7.10;;
77004;SDS011;67261;53.132;18.006;2023-10-31T08:28:03;13.70;;;9.70;;
77004;SDS011;67261;53.132;18.006;2023-10-31T08:30:31;13.00;;;7.80;;
77004;SDS011;67261;53.132;18.006;2023-10-31T08:33:02;13.90;;;7.80;;
77004;SDS011;67261;53.132;18.006;2023-10-31T08:37:56;12.30;;;8.90;;
77004;SDS011;67261;53.132;18.006;2023-10-31T08:40:34;12.60;;;8.20;;
77004;SDS011;67261;53.132;18.006;2023-10-31T08:43:09;11.10;;;7.80;;
77004;SDS011;67261;53.132;18.006;2023-10-31T08:45:37;27.50;;;16.00;;
77004;SDS011;67261;53.132;18.006;2023-10-31T08:48:06;80.80;;;37.40;;
77004;SDS011;67261;53.132;18.006;2023-10-31T08:50:33;85.60;;;39.40;;
77004;SDS011;67261;53.132;18.006;2023-10-31T08:53:01;67.90;;;35.00;;
77004;SDS011;67261;53.132;18.006;2023-10-31T08:55:39;40.70;;;26.50;;
77004;SDS011;67261;53.132;18.006;2023-10-31T08:58:13;33.90;;;21.20;;
77004;SDS011;67261;53.132;18.006;2023-10-31T09:00:45;24.00;;;16.60;;
77004;SDS011;67261;53.132;18.006;2023-10-31T09:03:12;19.70;;;14.50;;
77004;SDS011;67261;53.132;18.006;2023-10-31T09:05:39;16.40;;;11.20;;
77004;SDS011;67261;53.132;18.006;2023-10-31T09:08:07;16.80;;;12.50;;
77004;SDS011;67261;53.132;18.006;2023-10-31T09:10:37;17.00;;;12.70;;
77004;SDS011;67261;53.132;18.006;2023-10-31T09:13:15;15.30;;;12.30;;
77004;SDS011;67261;53.132;18.006;2023-10-31T09:15:46;12.50;;;10.60;;
77004;SDS011;67261;53.132;18.006;2023-10-31T09:18:16;14.00;;;11.00;;
77004;SDS011;67261;53.132;18.006;2023-10-31T09:20:44;13.40;;;10.80;;
77004;SDS011;67261;53.132;18.006;2023-10-31T09:23:14;13.80;;;10.40;;
77004;SDS011;67261;53.132;18.006;2023-10-31T09:25:46;20.50;;;14.40;;
77004;SDS011;67261;53.132;18.006;2023-10-31T09:28:13;19.80;;;14.30;;
77004;SDS011;67261;53.132;18.006;2023-10-31T09:30:41;17.30;;;12.00;;
77004;SDS011;67261;53.132;18.006;2023-10-31T09:33:08;14.30;;;10.80;;
77004;SDS011;67261;53.132;18.006;2023-10-31T09:35:36;13.30;;;10.60;;
77004;SDS011;67261;53.132;18.006;2023-10-31T09:38:03;11.30;;;10.00;;
77004;SDS011;67261;53.132;18.006;2023-10-31T09:42:57;10.50;;;7.50;;
77004;SDS011;67261;53.132;18.006;2023-10-31T09:45:24;10.20;;;7.70;;
77004;SDS011;67261;53.132;18.006;2023-10-31T09:47:52;10.20;;;7.10;;
77004;SDS011;67261;53.132;18.006;2023-10-31T09:50:20;13.80;;;8.90;;
77004;SDS011;67261;53.132;18.006;2023-10-31T09:52:49;12.80;;;8.80;;
77004;SDS011;67261;53.132;18.006;2023-10-31T09:55:17;11.60;;;8.60;;
77004;SDS011;67261;53.132;18.006;2023-10-31T09:57:46;10.60;;;8.50;;
77004;SDS011;67261;53.132;18.006;2023-10-31T10:00:13;8.40;;;6.20;;
77004;SDS011;67261;53.132;18.006;2023-10-31T10:02:43;10.30;;;7.40;;
77004;SDS011;67261;53.132;18.006;2023-10-31T10:05:10;10.10;;;8.60;;
77004;SDS011;67261;53.132;18.006;2023-10-31T10:07:41;10.40;;;8.40;;
77004;SDS011;67261;53.132;18.006;2023-10-31T10:10:13;9.10;;;6.60;;
77004;SDS011;67261;53.132;18.006;2023-10-31T10:12:48;9.00;;;6.10;;
77004;SDS011;67261;53.132;18.006;2023-10-31T10:15:18;12.90;;;9.00;;
77004;SDS011;67261;53.132;18.006;2023-10-31T10:17:49;10.20;;;7.30;;
77004;SDS011;67261;53.132;18.006;2023-10-31T10:20:18;9.80;;;6.30;;
77004;SDS011;67261;53.132;18.006;2023-10-31T10:22:49;9.60;;;6.50;;
77004;SDS011;67261;53.132;18.006;2023-10-31T10:27:47;9.00;;;6.80;;
77004;SDS011;67261;53.132;18.006;2023-10-31T10:30:19;8.70;;;6.40;;
77004;SDS011;67261;53.132;18.006;2023-10-31T10:35:16;8.80;;;6.30;;
77004;SDS011;67261;53.132;18.006;2023-10-31T10:37:46;9.70;;;6.90;;
77004;SDS011;67261;53.132;18.006;2023-10-31T10:40:16;9.70;;;6.60;;
77004;SDS011;67261;53.132;18.006;2023-10-31T10:42:45;10.40;;;7.60;;
77004;SDS011;67261;53.132;18.006;2023-10-31T10:45:16;9.20;;;6.90;;
77004;SDS011;67261;53.132;18.006;2023-10-31T10:47:45;9.70;;;6.50;;
77004;SDS011;67261;53.132;18.006;2023-10-31T10:50:14;9.30;;;6.60;;
77004;SDS011;67261;53.132;18.006;2023-10-31T10:53:06;8.60;;;6.60;;
77004;SDS011;67261;53.132;18.006;2023-10-31T10:55:42;10.70;;;7.20;;
77004;SDS011;67261;53.132;18.006;2023-10-31T11:00:53;10.10;;;7.30;;
77004;SDS011;67261;53.132;18.006;2023-10-31T11:03:24;10.60;;;7.60;;
77004;SDS011;67261;53.132;18.006;2023-10-31T11:05:54;12.70;;;8.00;;
77004;SDS011;67261;53.132;18.006;2023-10-31T11:08:25;12.10;;;8.30;;
77004;SDS011;67261;53.132;18.006;2023-10-31T11:10:56;11.90;;;8.20;;
77004;SDS011;67261;53.132;18.006;2023-10-31T11:13:24;12.40;;;9.10;;
77004;SDS011;67261;53.132;18.006;2023-10-31T11:15:54;18.50;;;12.70;;
77004;SDS011;67261;53.132;18.006;2023-10-31T11:18:26;13.60;;;9.80;;
77004;SDS011;67261;53.132;18.006;2023-10-31T11:20:57;13.70;;;10.30;;
77004;SDS011;67261;53.132;18.006;2023-10-31T11:23:26;12.30;;;9.30;;
77004;SDS011;67261;53.132;18.006;2023-10-31T11:25:56;12.40;;;8.40;;
77004;SDS011;67261;53.132;18.006;2023-10-31T11:30:51;13.70;;;8.90;;
77004;SDS011;67261;53.132;18.006;2023-10-31T11:33:23;10.20;;;7.20;;
77004;SDS011;67261;53.132;18.006;2023-10-31T11:36:01;11.90;;;8.70;;
77004;SDS011;67261;53.132;18.006;2023-10-31T11:38:32;12.40;;;8.70;;
77004;SDS011;67261;53.132;18.006;2023-10-31T11:41:03;10.90;;;7.90;;
77004;SDS011;67261;53.132;18.006;2023-10-31T11:46:20;9.90;;;6.20;;
77004;SDS011;67261;53.132;18.006;2023-10-31T11:49:02;9.90;;;6.30;;
77004;SDS011;67261;53.132;18.006;2023-10-31T11:51:34;11.40;;;8.00;;
77004;SDS011;67261;53.132;18.006;2023-10-31T11:54:02;10.60;;;7.40;;
77004;SDS011;67261;53.132;18.006;2023-10-31T11:56:29;9.10;;;5.80;;
77004;SDS011;67261;53.132;18.006;2023-10-31T11:59:04;8.10;;;5.70;;
77004;SDS011;67261;53.132;18.006;2023-10-31T12:01:43;7.80;;;5.00;;
77004;SDS011;67261;53.132;18.006;2023-10-31T12:04:23;8.10;;;5.40;;
77004;SDS011;67261;53.132;18.006;2023-10-31T12:06:58;7.60;;;4.10;;
77004;SDS011;67261;53.132;18.006;2023-10-31T12:09:27;7.20;;;4.80;;
77004;SDS011;67261;53.132;18.006;2023-10-31T12:11:54;6.10;;;3.90;;
77004;SDS011;67261;53.132;18.006;2023-10-31T12:14:24;5.40;;;3.50;;
77004;SDS011;67261;53.132;18.006;2023-10-31T12:16:51;5.60;;;3.90;;
77004;SDS011;67261;53.132;18.006;2023-10-31T12:19:24;11.80;;;5.70;;
77004;SDS011;67261;53.132;18.006;2023-10-31T12:21:51;13.40;;;8.20;;
77004;SDS011;67261;53.132;18.006;2023-10-31T12:24:18;22.10;;;14.60;;
77004;SDS011;67261;53.132;18.006;2023-10-31T12:26:45;21.40;;;14.00;;
77004;SDS011;67261;53.132;18.006;2023-10-31T12:29:14;13.10;;;9.00;;
77004;SDS011;67261;53.132;18.006;2023-10-31T12:31:49;10.00;;;6.50;;
77004;SDS011;67261;53.132;18.006;2023-10-31T12:34:20;9.40;;;5.80;;
77004;SDS011;67261;53.132;18.006;2023-10-31T12:36:50;7.00;;;4.70;;
77004;SDS011;67261;53.132;18.006;2023-10-31T12:39:21;7.60;;;4.90;;
77004;SDS011;67261;53.132;18.006;2023-10-31T12:41:52;6.50;;;4.20;;
77004;SDS011;67261;53.132;18.006;2023-10-31T12:44:25;7.00;;;4.10;;
77004;SDS011;67261;53.132;18.006;2023-10-31T12:46:54;5.30;;;3.40;;
77004;SDS011;67261;53.132;18.006;2023-10-31T12:49:21;4.70;;;2.90;;
77004;SDS011;67261;53.132;18.006;2023-10-31T12:51:58;7.20;;;2.90;;
77004;SDS011;67261;53.132;18.006;2023-10-31T12:54:27;7.40;;;3.60;;
77004;SDS011;67261;53.132;18.006;2023-10-31T12:57:00;4.50;;;2.70;;
77004;SDS011;67261;53.132;18.006;2023-10-31T12:59:28;6.10;;;2.70;;
77004;SDS011;67261;53.132;18.006;2023-10-31T13:02:07;5.30;;;2.80;;
77004;SDS011;67261;53.132;18.006;2023-10-31T13:04:40;4.10;;;2.10;;
77004;SDS011;67261;53.132;18.006;2023-10-31T13:07:07;4.30;;;2.20;;
77004;SDS011;67261;53.132;18.006;2023-10-31T13:09:41;5.30;;;2.60;;
77004;SDS011;67261;53.132;18.006;2023-10-31T13:12:09;4.20;;;2.30;;
77004;SDS011;67261;53.132;18.006;2023-10-31T13:14:48;5.40;;;2.40;;
77004;SDS011;67261;53.132;18.006;2023-10-31T13:17:15;4.30;;;1.80;;
77004;SDS011;67261;53.132;18.006;2023-10-31T13:19:45;3.70;;;2.10;;
77004;SDS011;67261;53.132;18.006;2023-10-31T13:22:18;3.40;;;1.90;;
77004;SDS011;67261;53.132;18.006;2023-10-31T13:24:49;3.20;;;1.40;;
77004;SDS011;67261;53.132;18.006;2023-10-31T13:27:16;3.70;;;2.00;;
77004;SDS011;67261;53.132;18.006;2023-10-31T13:29:46;5.30;;;2.40;;
77004;SDS011;67261;53.132;18.006;2023-10-31T13:32:16;5.00;;;2.40;;
77004;SDS011;67261;53.132;18.006;2023-10-31T13:34:45;7.70;;;4.00;;
77004;SDS011;67261;53.132;18.006;2023-10-31T13:37:13;9.10;;;7.20;;
77004;SDS011;67261;53.132;18.006;2023-10-31T13:39:40;5.90;;;4.00;;
77004;SDS011;67261;53.132;18.006;2023-10-31T13:42:10;5.20;;;3.50;;
77004;SDS011;67261;53.132;18.006;2023-10-31T13:44:37;7.10;;;3.20;;
77004;SDS011;67261;53.132;18.006;2023-10-31T13:47:05;5.80;;;3.60;;
77004;SDS011;67261;53.132;18.006;2023-10-31T13:49:35;5.60;;;2.80;;
77004;SDS011;67261;53.132;18.006;2023-10-31T13:52:03;5.80;;;4.00;;
77004;SDS011;67261;53.132;18.006;2023-10-31T13:54:33;4.30;;;2.80;;
77004;SDS011;67261;53.132;18.006;2023-10-31T13:57:00;5.80;;;3.00;;
77004;SDS011;67261;53.132;18.006;2023-10-31T13:59:28;4.70;;;2.70;;
77004;SDS011;67261;53.132;18.006;2023-10-31T14:04:22;4.80;;;2.70;;
77004;SDS011;67261;53.132;18.006;2023-10-31T14:06:50;4.50;;;2.40;;
77004;SDS011;67261;53.132;18.006;2023-10-31T14:09:18;4.10;;;2.20;;
77004;SDS011;67261;53.132;18.006;2023-10-31T14:11:47;4.20;;;2.70;;
77004;SDS011;67261;53.132;18.006;2023-10-31T14:14:15;4.80;;;2.80;;
77004;SDS011;67261;53.132;18.006;2023-10-31T14:16:46;4.30;;;2.40;;
77004;SDS011;67261;53.132;18.006;2023-10-31T14:19:14;4.70;;;2.40;;
77004;SDS011;67261;53.132;18.006;2023-10-31T14:21:44;4.40;;;2.10;;
77004;SDS011;67261;53.132;18.006;2023-10-31T14:24:11;3.20;;;1.80;;
77004;SDS011;67261;53.132;18.006;2023-10-31T14:26:40;4.30;;;1.60;;
77004;SDS011;67261;53.132;18.006;2023-10-31T14:29:09;3.50;;;2.10;;
77004;SDS011;67261;53.132;18.006;2023-10-31T14:31:40;4.40;;;1.90;;
77004;SDS011;67261;53.132;18.006;2023-10-31T14:34:09;5.90;;;1.60;;
77004;SDS011;67261;53.132;18.006;2023-10-31T14:36:39;3.50;;;2.10;;
77004;SDS011;67261;53.132;18.006;2023-10-31T14:39:14;4.50;;;2.30;;
77004;SDS011;67261;53.132;18.006;2023-10-31T14:41:42;6.70;;;3.50;;
77004;SDS011;67261;53.132;18.006;2023-10-31T14:44:09;5.60;;;3.10;;
77004;SDS011;67261;53.132;18.006;2023-10-31T14:46:37;4.60;;;2.60;;
77004;SDS011;67261;53.132;18.006;2023-10-31T14:49:06;4.70;;;2.30;;
77004;SDS011;67261;53.132;18.006;2023-10-31T14:51:33;4.50;;;2.20;;
77004;SDS011;67261;53.132;18.006;2023-10-31T14:54:03;5.20;;;2.00;;
77004;SDS011;67261;53.132;18.006;2023-10-31T14:56:30;3.30;;;1.50;;
77004;SDS011;67261;53.132;18.006;2023-10-31T15:01:25;4.00;;;2.40;;
77004;SDS011;67261;53.132;18.006;2023-10-31T15:03:57;4.50;;;2.10;;
77004;SDS011;67261;53.132;18.006;2023-10-31T15:06:26;4.10;;;2.20;;
77004;SDS011;67261;53.132;18.006;2023-10-31T15:08:56;5.10;;;2.30;;
77004;SDS011;67261;53.132;18.006;2023-10-31T15:11:23;3.80;;;2.30;;
77004;SDS011;67261;53.132;18.006;2023-10-31T15:13:52;3.90;;;2.00;;
77004;SDS011;67261;53.132;18.006;2023-10-31T15:16:19;4.60;;;2.10;;
77004;SDS011;67261;53.132;18.006;2023-10-31T15:18:46;4.70;;;2.20;;
77004;SDS011;67261;53.132;18.006;2023-10-31T15:23:40;4.80;;;2.40;;
77004;SDS011;67261;53.132;18.006;2023-10-31T15:26:08;4.40;;;2.30;;
77004;SDS011;67261;53.132;18.006;2023-10-31T15:28:40;4.60;;;2.40;;
77004;SDS011;67261;53.132;18.006;2023-10-31T15:31:09;5.00;;;2.80;;
77004;SDS011;67261;53.132;18.006;2023-10-31T15:33:37;4.90;;;2.90;;